Time;durP1;ratioP1;P1;durP2;ratioP2;P2;SDS_P1;SDS_P2;PMS_P1;PMS_P2;Temp;Humidity;BMP_temperature;BMP_pressure;BME280_temperature;BME280_humidity;BME280_pressure;Samples;Min_cycle;Max_cycle;Signal;HPM_P1;HPM_P2
2024/01/31 00:01:37;;;;;;;15.77;8.50;;;;;;;8.94;78.39;103324.06;5007874;28;20057;-61
2024/01/31 00:04:03;;;;;;;15.80;8.73;;;;;;;8.95;78.39;103316.63;5010345;28;20113;-61
2024/01/31 00:06:29;;;;;;;16.15;8.85;;;;;;;8.93;78.42;103316.81;5010427;28;20382;-61
2024/01/31 00:08:56;;;;;;;18.30;9.27;;;;;;;8.92;78.58;103316.97;5007233;28;20026;-61
2024/01/31 00:11:22;;;;;;;17.25;9.02;;;;;;;8.95;78.66;103316.63;5011153;28;20038;-61
2024/01/31 00:13:47;;;;;;;17.50;9.70;;;;;;;8.93;78.48;103316.81;5019595;28;20074;-61
2024/01/31 00:16:13;;;;;;;17.10;9.35;;;;;;;8.92;78.50;103323.41;5009670;28;20065;-61
2024/01/31 00:18:39;;;;;;;20.10;10.00;;;;;;;8.89;78.52;103318.22;4996169;28;20057;-61
2024/01/31 00:21:05;;;;;;;17.38;9.50;;;;;;;8.88;78.83;103333.09;4990088;28;20058;-61
2024/01/31 00:23:30;;;;;;;16.15;8.45;;;;;;;8.85;78.82;103330.72;4992723;28;20026;-61
2024/01/31 00:25:57;;;;;;;18.42;8.70;;;;;;;8.84;78.81;103340.03;5010376;28;20038;-61
2024/01/31 00:28:22;;;;;;;14.10;8.30;;;;;;;8.83;78.76;103338.31;5010297;28;20057;-61
2024/01/31 00:30:47;;;;;;;15.40;8.27;;;;;;;8.83;78.66;103353.03;5009911;28;20469;-61
2024/01/31 00:33:12;;;;;;;17.58;8.35;;;;;;;8.85;78.61;103350.09;5007744;28;20033;-61
2024/01/31 00:35:38;;;;;;;18.92;7.57;;;;;;;8.83;77.85;103352.19;5008690;28;20072;-61
2024/01/31 00:38:03;;;;;;;15.40;7.28;;;;;;;8.88;78.13;103349.72;5009861;28;20126;-61
2024/01/31 00:40:28;;;;;;;15.18;7.25;;;;;;;8.84;78.76;103356.66;5010606;28;20033;-61
2024/01/31 00:42:54;;;;;;;14.15;7.47;;;;;;;8.83;77.96;103353.03;5010861;28;20525;-61
2024/01/31 00:45:19;;;;;;;16.00;7.53;;;;;;;8.79;78.35;103357.22;5010402;28;20495;-61
2024/01/31 00:47:44;;;;;;;17.40;7.13;;;;;;;8.79;78.19;103359.13;5010150;28;20101;-61
2024/01/31 00:50:11;;;;;;;13.65;6.57;;;;;;;8.80;78.15;103370.03;5010205;28;20121;-61
2024/01/31 00:52:36;;;;;;;12.45;6.43;;;;;;;8.81;77.98;103362.59;5059224;28;20024;-61
2024/01/31 00:55:03;;;;;;;14.85;6.20;;;;;;;8.79;78.06;103362.75;4992270;28;20171;-62
2024/01/31 00:57:28;;;;;;;13.32;5.75;;;;;;;8.76;78.19;103360.38;4997941;28;20049;-61
2024/01/31 00:59:53;;;;;;;15.52;5.63;;;;;;;8.76;77.86;103356.69;4998670;28;20026;-61
2024/01/31 01:02:18;;;;;;;10.43;5.88;;;;;;;8.74;77.69;103367.13;5009635;28;20030;-61
2024/01/31 01:04:44;;;;;;;12.30;5.45;;;;;;;8.77;77.46;103364.00;5010311;28;20028;-61
2024/01/31 01:07:09;;;;;;;15.80;5.45;;;;;;;8.76;77.24;103365.91;5009399;28;20415;-61
2024/01/31 01:09:35;;;;;;;17.05;4.78;;;;;;;8.76;77.50;103370.53;5005100;28;20038;-61
2024/01/31 01:12:00;;;;;;;9.07;4.25;;;;;;;8.76;77.30;103371.44;5012097;28;20028;-61
2024/01/31 01:14:26;;;;;;;12.43;4.47;;;;;;;8.75;77.14;103371.59;5010187;28;20064;-61
2024/01/31 01:16:51;;;;;;;10.80;3.60;;;;;;;8.74;76.85;103376.28;5009888;28;20029;-61
2024/01/31 01:19:16;;;;;;;8.85;3.92;;;;;;;8.69;76.59;103366.78;5009417;28;20030;-61
2024/01/31 01:21:41;;;;;;;10.30;3.50;;;;;;;8.71;77.03;103371.09;5009546;28;20026;-61
2024/01/31 01:24:09;;;;;;;11.90;3.65;;;;;;;8.71;77.41;103373.00;5004839;28;20033;-61
2024/01/31 01:26:40;;;;;;;6.40;3.05;;;;;;;8.70;77.36;103374.91;5001744;28;20048;-61
2024/01/31 01:29:07;;;;;;;9.95;3.53;;;;;;;8.67;76.22;103368.88;5014312;28;20110;-61
2024/01/31 01:31:32;;;;;;;11.70;3.58;;;;;;;8.68;76.40;103367.81;5009717;28;20029;-61
2024/01/31 01:33:59;;;;;;;9.57;3.17;;;;;;;8.69;76.41;103375.97;5008477;28;20033;-61
2024/01/31 01:36:24;;;;;;;10.65;3.33;;;;;;;8.70;76.43;103379.59;5009005;28;20048;-61
2024/01/31 01:38:49;;;;;;;12.65;4.13;;;;;;;8.67;76.48;103374.41;5009784;28;20033;-61
2024/01/31 01:41:15;;;;;;;12.43;4.28;;;;;;;8.67;76.48;103374.41;5009420;28;20033;-61
2024/01/31 01:43:42;;;;;;;6.03;3.40;;;;;;;8.65;76.40;103376.50;5009735;28;20457;-61
2024/01/31 01:46:19;;;;;;;12.15;3.80;;;;;;;8.65;77.06;103370.97;5019787;28;20034;-61
2024/01/31 01:48:45;;;;;;;10.00;3.40;;;;;;;8.65;76.38;103370.97;5020056;28;20481;-61
2024/01/31 01:51:15;;;;;;;9.73;4.13;;;;;;;8.63;76.75;103378.56;5012387;28;20022;-61
2024/01/31 01:53:40;;;;;;;9.60;3.17;;;;;;;8.60;76.09;103375.09;5009580;28;20034;-61
2024/01/31 01:56:08;;;;;;;16.35;3.63;;;;;;;8.62;76.69;103369.41;5008804;28;20034;-61
2024/01/31 01:58:36;;;;;;;11.20;3.53;;;;;;;8.63;76.44;103373.03;5009787;28;20030;-61
2024/01/31 02:01:02;;;;;;;6.47;3.20;;;;;;;8.59;75.94;103359.53;5008792;28;20491;-61
2024/01/31 02:03:29;;;;;;;9.18;3.22;;;;;;;8.60;76.26;103375.09;5008260;28;20498;-61
2024/01/31 02:05:57;;;;;;;10.10;3.67;;;;;;;8.60;76.09;103369.56;5009176;28;20381;-61
2024/01/31 02:08:23;;;;;;;11.77;3.50;;;;;;;8.60;76.00;103375.09;5004840;28;20149;-61
2024/01/31 02:10:48;;;;;;;10.52;3.88;;;;;;;8.61;76.21;103370.47;5008547;28;20050;-61
2024/01/31 02:13:13;;;;;;;12.52;3.28;;;;;;;8.62;76.25;103368.53;5009505;28;20026;-61
2024/01/31 02:15:38;;;;;;;11.00;3.70;;;;;;;8.60;76.51;103364.03;5008874;28;20159;-61
2024/01/31 02:18:04;;;;;;;9.07;3.00;;;;;;;8.59;75.98;103367.84;5008611;28;20034;-61
2024/01/31 02:20:29;;;;;;;10.15;3.38;;;;;;;8.58;76.50;103362.50;5008468;28;20050;-61
2024/01/31 02:22:55;;;;;;;9.82;3.45;;;;;;;8.56;76.33;103368.19;5008593;28;20109;-61
2024/01/31 02:25:20;;;;;;;10.32;4.22;;;;;;;8.57;76.42;103369.09;5054808;28;20126;-61
2024/01/31 02:27:46;;;;;;;11.25;3.95;;;;;;;8.57;76.24;103355.25;5013318;28;20076;-61
2024/01/31 02:30:12;;;;;;;10.93;4.50;;;;;;;8.54;76.70;103352.81;5007923;28;20029;-61
2024/01/31 02:32:37;;;;;;;10.55;4.35;;;;;;;8.53;76.68;103364.94;5008871;28;20057;-61
2024/01/31 02:35:03;;;;;;;12.75;4.60;;;;;;;8.50;76.51;103363.38;5008784;28;20026;-61
2024/01/31 02:37:28;;;;;;;13.52;4.53;;;;;;;8.52;76.93;103365.97;5007619;28;20037;-61
2024/01/31 02:39:54;;;;;;;10.85;4.45;;;;;;;8.52;76.99;103366.81;5003722;28;20587;-61
2024/01/31 02:42:19;;;;;;;8.52;3.92;;;;;;;8.52;77.38;103364.06;5063116;28;20043;-61
2024/01/31 02:44:44;;;;;;;10.38;4.13;;;;;;;8.51;77.22;103367.03;4997331;28;20034;-61
2024/01/31 02:47:10;;;;;;;9.65;4.43;;;;;;;8.54;77.34;103364.75;4988968;28;20073;-61
2024/01/31 02:49:35;;;;;;;10.65;4.55;;;;;;;8.50;76.91;103366.16;4991918;28;20236;-61
2024/01/31 02:52:00;;;;;;;11.10;4.32;;;;;;;8.50;77.62;103363.38;5008170;28;20033;-61
2024/01/31 02:54:26;;;;;;;14.30;4.80;;;;;;;8.46;77.17;103361.16;5008673;28;20053;-61
2024/01/31 02:56:51;;;;;;;14.40;5.18;;;;;;;8.48;77.48;103370.13;5008894;28;20461;-61
2024/01/31 02:59:17;;;;;;;13.77;4.85;;;;;;;8.46;77.22;103355.63;5005345;28;20044;-61
2024/01/31 03:01:44;;;;;;;12.77;5.38;;;;;;;8.43;77.33;103344.91;5007467;28;20541;-61
2024/01/31 03:04:09;;;;;;;16.40;5.45;;;;;;;8.45;77.63;103349.22;5008093;28;20045;-61
2024/01/31 03:06:35;;;;;;;10.48;5.30;;;;;;;8.45;77.32;103337.28;5008021;28;20026;-61
2024/01/31 03:09:00;;;;;;;12.00;5.50;;;;;;;8.46;77.42;103341.78;5008270;28;20498;-61
2024/01/31 03:11:25;;;;;;;11.68;4.65;;;;;;;8.46;77.53;103336.25;5007695;28;20088;-61
2024/01/31 03:13:52;;;;;;;12.68;5.85;;;;;;;8.43;77.37;103331.94;5008061;28;20018;-61
2024/01/31 03:16:17;;;;;;;11.95;5.82;;;;;;;8.44;77.74;103332.78;5014986;28;20030;-61
2024/01/31 03:18:42;;;;;;;15.15;6.43;;;;;;;8.43;78.06;103329.16;5015595;28;20067;-61
2024/01/31 03:21:07;;;;;;;12.73;6.13;;;;;;;8.42;77.60;103335.75;5018176;28;20376;-61
2024/01/31 03:23:33;;;;;;;12.38;5.07;;;;;;;8.43;77.62;103334.69;5020270;28;20034;-61
2024/01/31 03:25:58;;;;;;;14.93;6.15;;;;;;;8.43;78.21;103329.16;5019551;28;20029;-61
2024/01/31 03:28:23;;;;;;;14.43;6.50;;;;;;;8.42;77.41;103324.66;5088114;28;20451;-61
2024/01/31 03:30:49;;;;;;;14.45;6.10;;;;;;;8.43;77.93;103326.38;5041841;28;20384;-61
2024/01/31 03:33:14;;;;;;;14.45;5.63;;;;;;;8.41;77.77;103320.19;5076264;28;20053;-61
2024/01/31 03:35:39;;;;;;;15.88;6.22;;;;;;;8.40;77.82;103321.22;5021048;28;20026;-61
2024/01/31 03:38:05;;;;;;;12.63;5.93;;;;;;;8.39;77.70;103322.25;5068539;28;20481;-61
2024/01/31 03:40:30;;;;;;;16.10;5.90;;;;;;;8.41;78.19;103313.75;5022062;28;20057;-61
2024/01/31 03:42:55;;;;;;;13.20;6.15;;;;;;;8.41;77.59;103325.72;5096358;28;20063;-61
2024/01/31 03:45:20;;;;;;;13.57;5.57;;;;;;;8.40;77.48;103320.34;5051679;28;20032;-61
2024/01/31 03:47:46;;;;;;;12.98;6.10;;;;;;;8.39;78.12;103319.50;5066655;28;20050;-61
2024/01/31 03:50:11;;;;;;;12.50;6.57;;;;;;;8.42;77.82;103313.59;5018595;28;20109;-61
2024/01/31 03:52:37;;;;;;;14.15;6.03;;;;;;;8.40;77.88;103314.81;5023674;28;20491;-61
2024/01/31 03:55:04;;;;;;;14.25;6.78;;;;;;;8.39;78.27;103316.72;5095860;28;20108;-61
2024/01/31 03:57:29;;;;;;;13.30;6.15;;;;;;;8.38;77.72;103320.53;5023266;28;20040;-61
2024/01/31 03:59:54;;;;;;;15.48;6.10;;;;;;;8.39;77.84;103315.84;5021151;28;20108;-61
2024/01/31 04:02:22;;;;;;;13.23;6.63;;;;;;;8.36;78.36;103312.34;5014985;28;20072;-61
2024/01/31 04:04:47;;;;;;;13.57;7.72;;;;;;;8.36;78.12;103322.56;5011819;28;20037;-61
2024/01/31 04:07:12;;;;;;;13.63;7.45;;;;;;;8.38;77.77;103322.44;5011145;28;20034;-62
2024/01/31 04:09:37;;;;;;;10.93;7.03;;;;;;;8.34;78.13;103308.06;5010609;28;20052;-62
2024/01/31 04:12:03;;;;;;;14.20;8.05;;;;;;;8.36;77.68;103300.44;5011026;28;20042;-61
2024/01/31 04:14:28;;;;;;;19.50;8.55;;;;;;;8.38;78.55;103306.69;5010417;28;20034;-61
2024/01/31 04:16:53;;;;;;;15.55;9.10;;;;;;;8.34;77.88;103306.16;5009943;28;20030;-61
2024/01/31 04:19:19;;;;;;;15.15;8.85;;;;;;;8.35;78.34;103310.66;5024734;28;20044;-61
2024/01/31 04:21:44;;;;;;;21.70;9.35;;;;;;;8.33;78.29;103312.75;5011448;28;20038;-61
2024/01/31 04:24:09;;;;;;;16.02;9.55;;;;;;;8.31;78.54;103313.94;4995877;28;20072;-61
2024/01/31 04:26:44;;;;;;;18.75;9.55;;;;;;;8.31;78.32;103313.94;4990421;28;20038;-61
2024/01/31 04:29:09;;;;;;;18.30;9.23;;;;;;;8.30;78.19;103315.84;4990309;28;20026;-61
2024/01/31 04:31:35;;;;;;;20.58;9.77;;;;;;;8.32;78.62;103310.13;4991206;28;20037;-61
2024/01/31 04:34:00;;;;;;;16.95;9.90;;;;;;;8.30;78.32;103313.09;4991331;28;20062;-61
2024/01/31 04:36:26;;;;;;;18.90;10.57;;;;;;;8.30;78.60;103312.22;4990604;28;20031;-61
2024/01/31 04:38:51;;;;;;;19.40;11.00;;;;;;;8.30;78.59;103306.69;5002114;28;20098;-61
2024/01/31 04:41:16;;;;;;;22.27;10.85;;;;;;;8.30;78.39;103312.22;5024020;28;20038;-60
2024/01/31 04:43:41;;;;;;;20.45;10.88;;;;;;;8.29;78.64;103308.59;5017742;28;20792;-61
2024/01/31 04:46:07;;;;;;;20.92;10.48;;;;;;;8.28;78.52;103312.38;5010212;28;20041;-60
2024/01/31 04:48:32;;;;;;;18.95;10.90;;;;;;;8.30;79.14;103306.69;5010302;28;20485;-61
2024/01/31 04:50:57;;;;;;;20.08;10.02;;;;;;;8.29;79.01;103307.72;5009819;28;20042;-60
2024/01/31 04:53:23;;;;;;;19.20;11.10;;;;;;;8.25;79.11;103317.41;5010170;28;20025;-60
2024/01/31 04:55:48;;;;;;;18.80;10.35;;;;;;;8.27;78.52;103313.44;5010449;28;20107;-60
2024/01/31 04:58:16;;;;;;;20.25;12.35;;;;;;;8.24;78.96;103305.50;5014511;28;20772;-61
2024/01/31 05:00:41;;;;;;;19.70;11.65;;;;;;;8.24;79.14;103304.63;5029681;28;20033;-61
2024/01/31 05:03:07;;;;;;;19.08;11.98;;;;;;;8.26;78.80;103310.88;5011954;28;20029;-61
2024/01/31 05:05:32;;;;;;;21.95;11.88;;;;;;;8.23;78.77;103309.31;5009504;28;20026;-60
2024/01/31 05:07:58;;;;;;;17.98;10.90;;;;;;;8.21;79.17;103302.22;5008683;28;20079;-60
2024/01/31 05:10:23;;;;;;;20.35;10.95;;;;;;;8.24;78.63;103299.09;5010067;28;20030;-60
2024/01/31 05:12:48;;;;;;;20.38;12.02;;;;;;;8.23;79.09;103301.00;5009661;28;20022;-60
2024/01/31 05:15:14;;;;;;;24.40;12.25;;;;;;;8.21;78.76;103303.06;5009774;28;20091;-61
2024/01/31 05:17:39;;;;;;;22.13;11.88;;;;;;;8.25;78.43;103295.28;5006446;28;20014;-61
2024/01/31 05:20:05;;;;;;;21.40;12.07;;;;;;;8.21;78.38;103292.00;5002903;28;20033;-60
2024/01/31 05:22:30;;;;;;;17.02;11.68;;;;;;;8.20;78.82;103290.28;5009870;28;20439;-60
2024/01/31 05:24:55;;;;;;;17.92;11.80;;;;;;;8.20;78.80;103292.19;5009187;28;20022;-61
2024/01/31 05:27:21;;;;;;;18.38;11.73;;;;;;;8.20;79.03;103290.28;5009070;28;20034;-61
2024/01/31 05:29:46;;;;;;;22.55;12.73;;;;;;;8.19;79.01;103296.00;5009711;28;20451;-60
2024/01/31 05:32:11;;;;;;;21.83;12.25;;;;;;;8.19;78.21;103290.47;5009791;28;20037;-61
2024/01/31 05:34:37;;;;;;;21.17;11.73;;;;;;;8.21;78.22;103296.69;5009963;28;20030;-61
2024/01/31 05:37:02;;;;;;;20.70;12.82;;;;;;;8.21;78.62;103288.38;5067910;28;20574;-61
2024/01/31 05:39:27;;;;;;;16.33;11.50;;;;;;;8.17;78.76;103290.63;5022035;28;20040;-61
2024/01/31 05:41:53;;;;;;;16.98;12.68;;;;;;;8.19;78.62;103301.53;5014563;28;20021;-60
2024/01/31 05:44:18;;;;;;;21.08;13.45;;;;;;;8.18;78.00;103297.91;5008860;28;20774;-60
2024/01/31 05:46:46;;;;;;;21.27;13.52;;;;;;;8.15;78.89;103298.25;5008802;28;20087;-60
2024/01/31 05:49:12;;;;;;;19.98;12.80;;;;;;;8.16;78.28;103293.59;5009081;28;20026;-60
2024/01/31 05:51:37;;;;;;;25.23;13.30;;;;;;;8.15;78.60;103308.47;5009848;28;20141;-60
2024/01/31 05:54:03;;;;;;;22.73;14.07;;;;;;;8.19;78.66;103299.63;5005452;28;20057;-60
2024/01/31 05:56:28;;;;;;;19.20;13.15;;;;;;;8.16;79.00;103308.28;5005514;28;20496;-60
2024/01/31 05:58:53;;;;;;;21.60;13.27;;;;;;;8.17;78.25;103298.94;5021369;28;20021;-61
2024/01/31 06:01:19;;;;;;;24.10;13.65;;;;;;;8.17;78.69;103303.59;5014988;28;20477;-61
2024/01/31 06:03:44;;;;;;;19.80;13.77;;;;;;;8.16;78.95;103299.97;5028693;28;20024;-60
2024/01/31 06:06:09;;;;;;;23.77;13.43;;;;;;;8.15;78.48;103297.41;5008817;28;20084;-60
2024/01/31 06:08:34;;;;;;;23.58;13.82;;;;;;;8.15;78.30;103301.03;5008596;28;20038;-61
2024/01/31 06:11:04;;;;;;;21.95;14.23;;;;;;;8.14;78.55;103299.31;5009042;28;20462;-61
2024/01/31 06:13:30;;;;;;;22.25;14.27;;;;;;;8.14;79.32;103312.28;5008822;28;20113;-60
2024/01/31 06:15:55;;;;;;;19.20;13.52;;;;;;;8.11;79.22;103303.28;5007821;28;20537;-60
2024/01/31 06:18:22;;;;;;;18.90;14.80;;;;;;;8.14;79.25;103301.22;5009091;28;20037;-60
2024/01/31 06:20:48;;;;;;;23.90;13.48;;;;;;;8.10;79.07;103290.50;5028324;28;20029;-60
2024/01/31 06:23:14;;;;;;;26.20;15.68;;;;;;;8.09;79.02;103294.28;5008512;28;20029;-60
2024/01/31 06:25:39;;;;;;;23.02;14.93;;;;;;;8.10;79.13;103282.19;5008539;28;20040;-61
2024/01/31 06:28:08;;;;;;;23.13;14.80;;;;;;;8.07;79.08;103288.09;5008631;28;20082;-60
2024/01/31 06:30:44;;;;;;;23.80;15.65;;;;;;;8.11;78.84;103281.16;5008330;28;20080;-61
2024/01/31 06:33:10;;;;;;;22.02;14.98;;;;;;;8.06;79.30;103283.59;5009167;28;20037;-60
2024/01/31 06:35:36;;;;;;;26.30;15.95;;;;;;;8.08;79.20;103275.09;5010307;28;20057;-60
2024/01/31 06:38:02;;;;;;;22.48;14.52;;;;;;;8.08;78.78;103275.09;5019076;28;20034;-60
2024/01/31 06:40:28;;;;;;;23.75;15.10;;;;;;;8.09;78.91;103276.81;4989092;28;20125;-61
2024/01/31 06:42:53;;;;;;;25.90;15.88;;;;;;;8.09;79.23;103266.63;4995858;28;20508;-60
2024/01/31 06:45:18;;;;;;;24.92;16.15;;;;;;;8.08;79.20;103253.84;5008623;28;20481;-61
2024/01/31 06:47:44;;;;;;;25.00;15.95;;;;;;;8.09;78.75;103244.50;5008300;28;20125;-60
2024/01/31 06:50:10;;;;;;;24.75;16.35;;;;;;;8.08;78.84;103244.69;5008299;28;20046;-60
2024/01/31 06:52:36;;;;;;;26.42;16.85;;;;;;;8.06;79.15;103244.88;5008624;28;20457;-60
2024/01/31 06:55:01;;;;;;;23.38;16.38;;;;;;;8.07;79.22;103252.13;5051628;28;20058;-60
2024/01/31 06:57:27;;;;;;;23.27;16.27;;;;;;;8.06;79.49;103250.41;5007293;28;20030;-60
2024/01/31 06:59:52;;;;;;;27.10;16.70;;;;;;;8.05;79.00;103256.97;5008839;28;20030;-60
2024/01/31 07:02:21;;;;;;;24.27;17.30;;;;;;;8.08;78.89;103253.84;5008648;28;20033;-60
2024/01/31 07:04:46;;;;;;;28.65;17.52;;;;;;;8.04;79.43;103269.06;5007759;28;20041;-60
2024/01/31 07:07:12;;;;;;;26.40;17.13;;;;;;;8.04;79.03;103273.75;5008760;28;20022;-60
2024/01/31 07:09:37;;;;;;;23.95;17.02;;;;;;;8.06;78.85;103291.03;5008375;28;20034;-60
2024/01/31 07:12:03;;;;;;;29.73;18.40;;;;;;;8.04;79.29;103290.34;5068699;28;20030;-60
2024/01/31 07:14:28;;;;;;;25.38;18.25;;;;;;;8.06;79.30;103313.16;5009572;28;20485;-60
2024/01/31 07:16:53;;;;;;;27.40;18.27;;;;;;;8.06;79.25;103314.03;5009017;28;20355;-60
2024/01/31 07:19:19;;;;;;;27.33;19.23;;;;;;;8.04;79.13;103327.16;5007336;28;20037;-60
2024/01/31 07:21:44;;;;;;;27.67;18.70;;;;;;;8.06;79.41;103327.84;5008221;28;20030;-60
2024/01/31 07:24:09;;;;;;;26.40;17.20;;;;;;;8.05;79.41;103336.31;5005205;28;20054;-61
2024/01/31 07:26:35;;;;;;;24.35;17.52;;;;;;;8.07;78.87;103346.16;5006994;28;20030;-60
2024/01/31 07:29:01;;;;;;;28.88;19.40;;;;;;;8.04;79.11;103352.03;5007771;28;20030;-59
2024/01/31 07:31:26;;;;;;;32.78;19.17;;;;;;;8.05;79.17;103350.13;5010138;28;20098;-59
2024/01/31 07:33:52;;;;;;;29.73;18.50;;;;;;;8.05;79.14;103353.75;5010512;28;20112;-59
2024/01/31 07:36:17;;;;;;;30.48;18.92;;;;;;;8.08;78.85;103356.19;5010893;28;20121;-60
2024/01/31 07:38:46;;;;;;;31.15;20.05;;;;;;;8.05;79.74;103356.53;5010377;28;20506;-59
2024/01/31 07:41:13;;;;;;;29.73;19.35;;;;;;;8.08;79.19;103360.84;5011719;28;20091;-60
2024/01/31 07:43:39;;;;;;;31.20;20.23;;;;;;;8.06;79.26;103361.03;5055170;28;20033;-59
2024/01/31 07:46:05;;;;;;;29.15;21.10;;;;;;;8.06;78.80;103360.19;5010541;28;20029;-59
2024/01/31 07:48:30;;;;;;;30.08;20.35;;;;;;;8.04;79.50;103360.34;5011319;28;20029;-60
2024/01/31 07:50:55;;;;;;;31.40;20.40;;;;;;;8.05;79.30;103352.91;5011949;28;20393;-60
2024/01/31 07:53:21;;;;;;;32.78;19.92;;;;;;;8.05;79.07;103359.28;5010171;28;20022;-60
2024/01/31 07:55:46;;;;;;;32.42;21.00;;;;;;;8.02;79.75;103362.44;5010832;28;20052;-61
2024/01/31 07:58:11;;;;;;;31.55;19.95;;;;;;;8.06;79.13;103352.75;5010759;28;20045;-61
2024/01/31 08:00:37;;;;;;;31.35;20.25;;;;;;;8.05;79.17;103353.75;5019702;28;20025;-61
2024/01/31 08:03:03;;;;;;;29.98;20.17;;;;;;;8.07;79.21;103356.38;5008539;28;20029;-61
2024/01/31 08:05:28;;;;;;;29.25;20.83;;;;;;;8.02;78.97;103351.38;5009584;28;20029;-61
2024/01/31 08:07:57;;;;;;;30.70;20.95;;;;;;;8.02;79.10;103348.59;5004991;28;20036;-61
2024/01/31 08:10:22;;;;;;;31.38;20.30;;;;;;;8.04;79.97;103346.50;5004215;28;20037;-61
2024/01/31 08:12:48;;;;;;;29.70;20.63;;;;;;;8.01;79.35;103341.31;4999930;28;20029;-61
2024/01/31 08:15:14;;;;;;;31.75;21.15;;;;;;;8.04;79.25;103343.75;5009019;28;20033;-61
2024/01/31 08:17:39;;;;;;;29.13;21.23;;;;;;;8.00;79.59;103331.31;5010322;28;20048;-61
2024/01/31 08:20:06;;;;;;;29.95;21.70;;;;;;;8.02;79.65;103342.22;5009808;28;20052;-61
2024/01/31 08:22:33;;;;;;;32.42;20.70;;;;;;;8.05;80.07;103344.59;5008723;28;20485;-61
2024/01/31 08:24:59;;;;;;;34.72;21.63;;;;;;;8.05;80.02;103345.47;5071002;28;20061;-60
2024/01/31 08:27:24;;;;;;;35.35;22.15;;;;;;;8.06;79.90;103344.44;4991787;28;20026;-60
2024/01/31 08:29:51;;;;;;;33.97;22.48;;;;;;;8.06;80.07;103344.44;4999492;28;20096;-60
2024/01/31 08:32:19;;;;;;;31.67;21.35;;;;;;;8.10;79.90;103342.19;5005525;28;20574;-60
2024/01/31 08:34:45;;;;;;;37.80;23.13;;;;;;;8.07;79.90;103340.63;5005539;28;20075;-61
2024/01/31 08:37:10;;;;;;;34.65;23.40;;;;;;;8.10;80.09;103332.00;5006857;28;20030;-61
2024/01/31 08:39:36;;;;;;;35.80;23.27;;;;;;;8.09;79.36;103329.38;5006684;28;20117;-60
2024/01/31 08:42:01;;;;;;;34.15;23.00;;;;;;;8.08;79.47;103325.75;5008331;28;20034;-60
2024/01/31 08:44:26;;;;;;;36.28;23.58;;;;;;;8.07;80.14;103326.81;5063517;28;20431;-61
2024/01/31 08:46:52;;;;;;;43.60;24.02;;;;;;;8.09;79.85;103310.88;5008669;28;20493;-60
2024/01/31 08:49:18;;;;;;;40.65;24.83;;;;;;;8.09;79.69;103310.88;5009183;28;20072;-61
2024/01/31 08:51:43;;;;;;;39.20;23.92;;;;;;;8.10;79.51;103320.94;5009536;28;20030;-61
2024/01/31 08:54:09;;;;;;;40.97;23.50;;;;;;;8.11;80.25;103314.34;5010389;28;20044;-61
2024/01/31 08:56:34;;;;;;;38.42;23.65;;;;;;;8.12;80.37;103305.00;5008668;28;20029;-61
2024/01/31 08:59:00;;;;;;;41.42;24.67;;;;;;;8.11;80.29;103300.50;5009934;28;20021;-61
2024/01/31 09:01:25;;;;;;;40.00;24.90;;;;;;;8.10;79.92;103304.34;5006955;28;20034;-60
2024/01/31 09:03:51;;;;;;;40.55;24.88;;;;;;;8.12;80.07;103302.25;5029984;28;20078;-59
2024/01/31 09:06:16;;;;;;;42.40;24.83;;;;;;;8.14;79.70;103307.63;5006286;28;20420;-60
2024/01/31 09:08:42;;;;;;;36.35;25.38;;;;;;;8.12;80.49;103296.69;5023436;28;20070;-59
2024/01/31 09:11:07;;;;;;;42.70;25.33;;;;;;;8.10;80.43;103287.75;5009126;28;20502;-60
2024/01/31 09:13:33;;;;;;;40.95;25.63;;;;;;;8.13;80.52;103283.72;5002273;28;20027;-60
2024/01/31 09:15:58;;;;;;;41.75;25.65;;;;;;;8.13;80.70;103278.19;5009113;28;20034;-60
2024/01/31 09:18:23;;;;;;;42.33;26.17;;;;;;;8.13;79.92;103278.19;5008390;28;20050;-60
2024/01/31 09:20:49;;;;;;;42.55;27.60;;;;;;;8.15;80.53;103278.91;5009019;28;20034;-60
2024/01/31 09:23:14;;;;;;;40.33;24.50;;;;;;;8.17;81.35;103268.50;5008387;28;20184;-60
2024/01/31 09:25:39;;;;;;;39.28;25.92;;;;;;;8.12;80.57;103262.66;5007056;28;20069;-60
2024/01/31 09:28:05;;;;;;;45.20;27.45;;;;;;;8.15;80.86;103255.91;4994490;28;20034;-60
2024/01/31 09:30:30;;;;;;;45.50;26.95;;;;;;;8.14;80.62;103256.97;5003740;28;20029;-60
2024/01/31 09:32:55;;;;;;;44.67;26.90;;;;;;;8.13;80.79;103258.84;5017394;28;20035;-60
2024/01/31 09:35:20;;;;;;;46.67;28.83;;;;;;;8.02;81.46;103254.56;5034658;28;20044;-60
2024/01/31 09:37:46;;;;;;;45.45;28.42;;;;;;;8.09;80.91;103255.56;5009317;28;20038;-60
2024/01/31 09:40:15;;;;;;;40.45;26.55;;;;;;;8.09;80.79;103252.78;5013387;28;20018;-60
2024/01/31 09:42:42;;;;;;;46.33;28.65;;;;;;;8.10;81.41;103251.78;5005317;28;20026;-60
2024/01/31 09:45:11;;;;;;;44.58;29.67;;;;;;;8.06;81.30;103244.88;5008797;28;20100;-60
2024/01/31 09:47:40;;;;;;;43.13;29.00;;;;;;;8.09;81.50;103243.63;5008981;28;20042;-60
2024/01/31 09:50:06;;;;;;;43.17;27.35;;;;;;;8.05;80.88;103233.97;5008505;28;20532;-60
2024/01/31 09:52:35;;;;;;;42.83;28.95;;;;;;;8.07;81.83;103237.44;5007856;28;20029;-60
2024/01/31 09:55:04;;;;;;;44.90;29.00;;;;;;;8.12;81.22;103232.22;5008767;28;20036;-59
2024/01/31 09:57:29;;;;;;;45.50;27.95;;;;;;;8.13;81.30;103231.16;5007272;28;20034;-60
2024/01/31 09:59:56;;;;;;;44.95;27.98;;;;;;;8.16;81.47;103230.81;5065543;28;20049;-60
2024/01/31 10:02:22;;;;;;;41.17;26.55;;;;;;;8.19;80.70;103229.59;4989089;28;20057;-60
2024/01/31 10:04:50;;;;;;;39.10;26.50;;;;;;;8.21;80.05;103230.28;4989302;28;20034;-60
2024/01/31 10:07:28;;;;;;;40.78;25.58;;;;;;;8.22;80.08;103238.41;4988860;28;20031;-60
2024/01/31 10:09:54;;;;;;;38.88;26.20;;;;;;;8.22;79.77;103245.88;4989271;28;20030;-60
2024/01/31 10:12:20;;;;;;;34.80;23.27;;;;;;;8.25;79.64;103245.47;4989083;28;20033;-60
2024/01/31 10:14:48;;;;;;;34.97;23.23;;;;;;;8.25;78.80;103259.31;4988259;28;20030;-60
2024/01/31 10:17:20;;;;;;;31.73;22.30;;;;;;;8.26;78.67;103258.28;5027373;28;20114;-60
2024/01/31 10:19:46;;;;;;;32.92;22.15;;;;;;;8.28;78.10;103256.19;5015295;28;20018;-61
2024/01/31 10:22:11;;;;;;;33.53;21.52;;;;;;;8.30;78.42;103256.88;5003888;28;20519;-60
2024/01/31 10:24:38;;;;;;;29.80;21.50;;;;;;;8.30;78.55;103257.75;5013685;28;20415;-60
2024/01/31 10:27:05;;;;;;;30.52;21.25;;;;;;;8.31;77.74;103264.16;5010096;28;20072;-60
2024/01/31 10:29:32;;;;;;;25.20;19.35;;;;;;;8.33;77.50;103262.94;5006677;28;20065;-60
2024/01/31 10:31:57;;;;;;;27.77;20.00;;;;;;;8.34;76.77;103264.66;4995056;28;20070;-60
2024/01/31 10:34:23;;;;;;;26.27;18.48;;;;;;;8.34;76.46;103272.09;4994774;28;20027;-61
2024/01/31 10:36:49;;;;;;;27.30;19.38;;;;;;;8.35;76.49;103266.38;5003849;28;20034;-62
2024/01/31 10:39:16;;;;;;;24.65;19.05;;;;;;;8.39;76.75;103263.28;5008168;28;20401;-61
2024/01/31 10:41:42;;;;;;;24.33;18.48;;;;;;;8.39;76.60;103255.84;5006969;28;20025;-59
2024/01/31 10:44:13;;;;;;;27.35;18.42;;;;;;;8.39;76.61;103255.84;5008234;28;20049;-59
2024/01/31 10:46:39;;;;;;;22.65;17.00;;;;;;;8.43;75.65;103262.72;5007771;28;20394;-58
2024/01/31 10:49:04;;;;;;;22.17;16.15;;;;;;;8.41;74.68;103267.59;5004731;28;20046;-60
2024/01/31 10:51:31;;;;;;;19.63;14.45;;;;;;;8.41;73.96;103264.84;5007202;28;20037;-59
2024/01/31 10:53:57;;;;;;;22.85;15.40;;;;;;;8.42;74.29;103261.03;5012168;28;20034;-59
2024/01/31 10:56:24;;;;;;;21.65;15.40;;;;;;;8.41;74.10;103253.78;5007870;28;20389;-60
2024/01/31 10:58:50;;;;;;;21.98;16.75;;;;;;;8.40;74.15;103252.03;5008187;28;20037;-59
2024/01/31 11:01:17;;;;;;;20.75;16.30;;;;;;;8.43;73.83;103245.28;5008072;28;20114;-60
2024/01/31 11:03:46;;;;;;;21.08;16.35;;;;;;;8.43;74.29;103240.59;5006731;28;21122;-61
2024/01/31 11:06:11;;;;;;;21.55;15.82;;;;;;;8.42;73.15;103240.78;5007144;28;20022;-60
2024/01/31 11:08:40;;;;;;;22.02;15.75;;;;;;;8.40;73.34;103235.41;5007403;28;20042;-63
2024/01/31 11:11:09;;;;;;;21.95;16.50;;;;;;;8.43;73.04;103239.72;5006121;28;20485;-59
2024/01/31 11:13:35;;;;;;;21.50;16.80;;;;;;;8.42;72.87;103233.34;5033848;28;20059;-60
2024/01/31 11:16:00;;;;;;;22.88;16.88;;;;;;;8.43;73.06;103229.53;5038068;28;20177;-59